createdAt,value
2023-01-13T00:00:02.940Z,89
2023-01-13T00:20:02.418Z,89
2023-01-13T00:40:02.834Z,89
2023-01-13T01:00:03.245Z,88
2023-01-13T01:20:02.830Z,88
2023-01-13T01:40:02.456Z,88
2023-01-13T02:00:02.980Z,87
2023-01-13T02:20:02.585Z,86
2023-01-13T02:40:03.301Z,85
2023-01-13T03:00:02.852Z,84
2023-01-13T03:20:03.098Z,83
2023-01-13T03:40:02.677Z,83
2023-01-13T04:00:03.217Z,82
2023-01-13T04:20:02.601Z,82
2023-01-13T04:40:03.044Z,81
2023-01-13T05:00:02.530Z,81
2023-01-13T05:20:03.449Z,81
2023-01-13T05:40:02.980Z,81
2023-01-13T06:00:02.380Z,81
2023-01-13T06:20:02.881Z,81
2023-01-13T06:40:02.361Z,81
2023-01-13T07:00:02.883Z,81
2023-01-13T07:20:02.785Z,81
2023-01-13T07:40:03.343Z,81
2023-01-13T08:00:03.013Z,80
2023-01-13T08:20:02.781Z,78
2023-01-13T08:40:03.327Z,77
2023-01-13T09:00:03.405Z,77
2023-01-13T09:20:03.209Z,77
2023-01-13T09:40:02.615Z,78
2023-01-13T10:00:03.003Z,78
2023-01-13T10:20:02.596Z,77
2023-01-13T10:40:03.262Z,76
2023-01-13T11:00:03.281Z,76
2023-01-13T11:20:02.905Z,75
2023-01-13T11:40:02.666Z,72
2023-01-13T12:00:04.054Z,71
2023-01-13T12:20:02.864Z,69
2023-01-13T12:40:02.625Z,67
2023-01-13T13:00:03.241Z,66
2023-01-13T13:20:03.308Z,65
2023-01-13T13:40:03.296Z,64
2023-01-13T14:00:03.769Z,64
2023-01-13T14:20:02.438Z,63
2023-01-13T14:40:03.523Z,63
2023-01-13T15:00:03.174Z,63
2023-01-13T15:20:03.040Z,64
2023-01-13T15:40:02.635Z,64
2023-01-13T16:00:03.502Z,62
2023-01-13T16:20:02.250Z,62
2023-01-13T16:40:03.048Z,63
2023-01-13T17:00:03.330Z,64
2023-01-13T17:20:03.371Z,66
2023-01-13T17:40:03.000Z,68
2023-01-13T18:00:02.872Z,69
2023-01-13T18:20:02.826Z,69
2023-01-13T18:40:04.545Z,69
2023-01-13T19:00:03.321Z,69
2023-01-13T19:20:03.028Z,70
2023-01-13T19:40:02.773Z,70
2023-01-13T20:00:03.364Z,69
2023-01-13T20:20:03.015Z,68
2023-01-13T20:40:02.516Z,68
2023-01-13T21:00:03.356Z,69
2023-01-13T21:20:04.820Z,69
2023-01-13T21:40:03.468Z,68
2023-01-13T22:00:02.907Z,68
2023-01-13T22:20:02.263Z,68
2023-01-13T22:40:02.863Z,68
2023-01-13T23:00:03.371Z,68
2023-01-13T23:20:02.969Z,69
2023-01-13T23:40:02.238Z,69
